sensor_id;sensor_type;location;lat;lon;timestamp;P1;durP1;ratioP1;P2;durP2;ratioP2
14080;SDS011;7116;52.152;5.392;2023-02-28T00:00:04;6.03;;;3.63;;
14080;SDS011;7116;52.152;5.392;2023-02-28T00:02:34;7.97;;;3.30;;
14080;SDS011;7116;52.152;5.392;2023-02-28T00:05:00;7.10;;;4.23;;
14080;SDS011;7116;52.152;5.392;2023-02-28T00:07:26;6.38;;;3.80;;
14080;SDS011;7116;52.152;5.392;2023-02-28T00:09:51;4.83;;;3.40;;
14080;SDS011;7116;52.152;5.392;2023-02-28T00:12:16;7.10;;;4.13;;
14080;SDS011;7116;52.152;5.392;2023-02-28T00:14:41;5.23;;;3.07;;
14080;SDS011;7116;52.152;5.392;2023-02-28T00:17:06;8.67;;;4.50;;
14080;SDS011;7116;52.152;5.392;2023-02-28T00:19:32;4.87;;;3.77;;
14080;SDS011;7116;52.152;5.392;2023-02-28T00:21:57;7.07;;;3.70;;
14080;SDS011;7116;52.152;5.392;2023-02-28T00:24:22;7.27;;;3.63;;
14080;SDS011;7116;52.152;5.392;2023-02-28T00:26:47;5.70;;;3.83;;
14080;SDS011;7116;52.152;5.392;2023-02-28T00:29:12;6.00;;;3.50;;
14080;SDS011;7116;52.152;5.392;2023-02-28T00:31:38;7.83;;;3.47;;
14080;SDS011;7116;52.152;5.392;2023-02-28T00:34:03;6.53;;;4.13;;
14080;SDS011;7116;52.152;5.392;2023-02-28T00:36:28;5.00;;;3.50;;
14080;SDS011;7116;52.152;5.392;2023-02-28T00:38:53;11.93;;;3.50;;
14080;SDS011;7116;52.152;5.392;2023-02-28T00:41:18;8.50;;;4.13;;
14080;SDS011;7116;52.152;5.392;2023-02-28T00:43:43;7.23;;;3.83;;
14080;SDS011;7116;52.152;5.392;2023-02-28T00:46:09;6.40;;;3.63;;
14080;SDS011;7116;52.152;5.392;2023-02-28T00:48:34;6.33;;;3.70;;
14080;SDS011;7116;52.152;5.392;2023-02-28T00:50:59;9.47;;;4.70;;
14080;SDS011;7116;52.152;5.392;2023-02-28T00:53:25;7.20;;;3.60;;
14080;SDS011;7116;52.152;5.392;2023-02-28T00:55:50;9.07;;;3.90;;
14080;SDS011;7116;52.152;5.392;2023-02-28T00:58:16;4.97;;;3.23;;
14080;SDS011;7116;52.152;5.392;2023-02-28T01:00:41;5.17;;;3.40;;
14080;SDS011;7116;52.152;5.392;2023-02-28T01:03:06;5.97;;;3.77;;
14080;SDS011;7116;52.152;5.392;2023-02-28T01:05:31;8.07;;;3.90;;
14080;SDS011;7116;52.152;5.392;2023-02-28T01:07:56;4.70;;;3.47;;
14080;SDS011;7116;52.152;5.392;2023-02-28T01:10:21;7.80;;;3.93;;
14080;SDS011;7116;52.152;5.392;2023-02-28T01:12:47;6.17;;;3.73;;
14080;SDS011;7116;52.152;5.392;2023-02-28T01:15:12;6.80;;;3.67;;
14080;SDS011;7116;52.152;5.392;2023-02-28T01:17:37;4.67;;;3.10;;
14080;SDS011;7116;52.152;5.392;2023-02-28T01:20:03;5.97;;;3.67;;
14080;SDS011;7116;52.152;5.392;2023-02-28T01:22:28;8.25;;;3.30;;
14080;SDS011;7116;52.152;5.392;2023-02-28T01:24:53;7.88;;;3.65;;
14080;SDS011;7116;52.152;5.392;2023-02-28T01:27:18;8.82;;;3.85;;
14080;SDS011;7116;52.152;5.392;2023-02-28T01:29:44;6.90;;;3.70;;
14080;SDS011;7116;52.152;5.392;2023-02-28T01:32:09;7.60;;;4.57;;
14080;SDS011;7116;52.152;5.392;2023-02-28T01:34:34;7.37;;;4.00;;
14080;SDS011;7116;52.152;5.392;2023-02-28T01:36:59;6.83;;;4.17;;
14080;SDS011;7116;52.152;5.392;2023-02-28T01:39:25;5.93;;;3.70;;
14080;SDS011;7116;52.152;5.392;2023-02-28T01:41:50;5.50;;;3.80;;
14080;SDS011;7116;52.152;5.392;2023-02-28T01:46:59;7.78;;;3.95;;
14080;SDS011;7116;52.152;5.392;2023-02-28T01:49:24;4.47;;;3.07;;
14080;SDS011;7116;52.152;5.392;2023-02-28T01:51:50;5.27;;;3.67;;
14080;SDS011;7116;52.152;5.392;2023-02-28T01:54:18;6.13;;;3.17;;
14080;SDS011;7116;52.152;5.392;2023-02-28T01:56:47;5.85;;;4.13;;
14080;SDS011;7116;52.152;5.392;2023-02-28T01:59:14;5.40;;;3.83;;
14080;SDS011;7116;52.152;5.392;2023-02-28T02:01:43;5.60;;;3.72;;
14080;SDS011;7116;52.152;5.392;2023-02-28T02:04:08;4.40;;;3.27;;
14080;SDS011;7116;52.152;5.392;2023-02-28T02:06:36;6.60;;;3.87;;
14080;SDS011;7116;52.152;5.392;2023-02-28T02:09:02;8.75;;;4.45;;
14080;SDS011;7116;52.152;5.392;2023-02-28T02:11:28;5.18;;;4.20;;
14080;SDS011;7116;52.152;5.392;2023-02-28T02:18:57;6.53;;;4.43;;
14080;SDS011;7116;52.152;5.392;2023-02-28T02:29:12;7.97;;;3.63;;
14080;SDS011;7116;52.152;5.392;2023-02-28T02:31:46;6.05;;;3.85;;
14080;SDS011;7116;52.152;5.392;2023-02-28T02:34:21;8.35;;;4.07;;
14080;SDS011;7116;52.152;5.392;2023-02-28T02:36:55;5.78;;;3.72;;
14080;SDS011;7116;52.152;5.392;2023-02-28T02:39:27;6.97;;;3.83;;
14080;SDS011;7116;52.152;5.392;2023-02-28T02:41:54;6.75;;;4.70;;
14080;SDS011;7116;52.152;5.392;2023-02-28T02:44:22;7.20;;;4.20;;
14080;SDS011;7116;52.152;5.392;2023-02-28T02:46:50;7.00;;;3.58;;
14080;SDS011;7116;52.152;5.392;2023-02-28T02:49:24;6.63;;;4.25;;
14080;SDS011;7116;52.152;5.392;2023-02-28T02:51:50;9.73;;;4.25;;
14080;SDS011;7116;52.152;5.392;2023-02-28T02:54:17;5.93;;;3.42;;
14080;SDS011;7116;52.152;5.392;2023-02-28T02:56:44;7.60;;;4.03;;
14080;SDS011;7116;52.152;5.392;2023-02-28T02:59:11;9.35;;;4.20;;
14080;SDS011;7116;52.152;5.392;2023-02-28T03:01:38;9.10;;;4.13;;
14080;SDS011;7116;52.152;5.392;2023-02-28T03:04:08;6.43;;;3.83;;
14080;SDS011;7116;52.152;5.392;2023-02-28T03:06:33;5.57;;;3.83;;
14080;SDS011;7116;52.152;5.392;2023-02-28T03:09:00;10.15;;;4.93;;
14080;SDS011;7116;52.152;5.392;2023-02-28T03:11:25;7.10;;;4.10;;
14080;SDS011;7116;52.152;5.392;2023-02-28T03:21:45;9.27;;;4.50;;
14080;SDS011;7116;52.152;5.392;2023-02-28T03:24:25;7.38;;;4.07;;
14080;SDS011;7116;52.152;5.392;2023-02-28T03:26:55;9.15;;;3.55;;
14080;SDS011;7116;52.152;5.392;2023-02-28T03:29:32;9.27;;;3.88;;
14080;SDS011;7116;52.152;5.392;2023-02-28T03:31:59;9.15;;;4.45;;
14080;SDS011;7116;52.152;5.392;2023-02-28T03:34:33;10.32;;;5.03;;
14080;SDS011;7116;52.152;5.392;2023-02-28T03:37:00;6.03;;;4.45;;
14080;SDS011;7116;52.152;5.392;2023-02-28T03:39:31;5.65;;;3.53;;
14080;SDS011;7116;52.152;5.392;2023-02-28T03:42:00;7.32;;;4.30;;
14080;SDS011;7116;52.152;5.392;2023-02-28T03:44:46;5.93;;;3.80;;
14080;SDS011;7116;52.152;5.392;2023-02-28T03:52:17;11.73;;;4.68;;
14080;SDS011;7116;52.152;5.392;2023-02-28T03:54:45;8.30;;;4.28;;
14080;SDS011;7116;52.152;5.392;2023-02-28T03:57:15;7.15;;;4.68;;
14080;SDS011;7116;52.152;5.392;2023-02-28T03:59:44;6.28;;;3.92;;
14080;SDS011;7116;52.152;5.392;2023-02-28T04:02:11;6.32;;;4.05;;
14080;SDS011;7116;52.152;5.392;2023-02-28T04:04:36;8.23;;;4.37;;
14080;SDS011;7116;52.152;5.392;2023-02-28T04:07:05;9.00;;;4.87;;
14080;SDS011;7116;52.152;5.392;2023-02-28T04:09:31;11.13;;;4.60;;
14080;SDS011;7116;52.152;5.392;2023-02-28T04:11:56;8.20;;;4.55;;
14080;SDS011;7116;52.152;5.392;2023-02-28T04:14:21;5.43;;;4.37;;
14080;SDS011;7116;52.152;5.392;2023-02-28T04:16:47;8.87;;;4.37;;
14080;SDS011;7116;52.152;5.392;2023-02-28T04:19:12;6.80;;;4.53;;
14080;SDS011;7116;52.152;5.392;2023-02-28T04:21:42;5.60;;;4.68;;
14080;SDS011;7116;52.152;5.392;2023-02-28T04:24:08;5.93;;;3.53;;
14080;SDS011;7116;52.152;5.392;2023-02-28T04:26:38;7.68;;;4.10;;
14080;SDS011;7116;52.152;5.392;2023-02-28T04:29:04;5.78;;;3.90;;
14080;SDS011;7116;52.152;5.392;2023-02-28T04:31:30;5.47;;;3.65;;
14080;SDS011;7116;52.152;5.392;2023-02-28T04:33:55;6.23;;;3.63;;
14080;SDS011;7116;52.152;5.392;2023-02-28T04:36:20;6.03;;;4.15;;
14080;SDS011;7116;52.152;5.392;2023-02-28T04:38:47;7.03;;;3.70;;
14080;SDS011;7116;52.152;5.392;2023-02-28T04:41:13;6.80;;;3.75;;
14080;SDS011;7116;52.152;5.392;2023-02-28T04:43:38;4.83;;;3.13;;
14080;SDS011;7116;52.152;5.392;2023-02-28T04:46:04;5.37;;;3.97;;
14080;SDS011;7116;52.152;5.392;2023-02-28T04:48:30;5.77;;;3.73;;
14080;SDS011;7116;52.152;5.392;2023-02-28T04:50:59;5.10;;;3.95;;
14080;SDS011;7116;52.152;5.392;2023-02-28T04:53:24;6.57;;;3.80;;
14080;SDS011;7116;52.152;5.392;2023-02-28T04:55:49;6.27;;;4.23;;
14080;SDS011;7116;52.152;5.392;2023-02-28T04:58:15;4.33;;;3.13;;
14080;SDS011;7116;52.152;5.392;2023-02-28T05:00:40;5.57;;;3.83;;
14080;SDS011;7116;52.152;5.392;2023-02-28T05:03:05;6.13;;;3.90;;
14080;SDS011;7116;52.152;5.392;2023-02-28T05:05:30;6.43;;;4.20;;
14080;SDS011;7116;52.152;5.392;2023-02-28T05:07:56;6.83;;;4.00;;
14080;SDS011;7116;52.152;5.392;2023-02-28T05:10:24;4.70;;;3.40;;
14080;SDS011;7116;52.152;5.392;2023-02-28T05:12:49;5.60;;;4.00;;
14080;SDS011;7116;52.152;5.392;2023-02-28T05:15:15;3.50;;;3.07;;
14080;SDS011;7116;52.152;5.392;2023-02-28T05:17:40;7.10;;;3.70;;
14080;SDS011;7116;52.152;5.392;2023-02-28T05:20:06;5.28;;;3.47;;
14080;SDS011;7116;52.152;5.392;2023-02-28T05:22:31;6.13;;;3.70;;
14080;SDS011;7116;52.152;5.392;2023-02-28T05:24:57;6.20;;;3.33;;
14080;SDS011;7116;52.152;5.392;2023-02-28T05:27:22;7.38;;;3.92;;
14080;SDS011;7116;52.152;5.392;2023-02-28T05:29:47;6.30;;;3.80;;
14080;SDS011;7116;52.152;5.392;2023-02-28T05:32:13;5.37;;;4.87;;
14080;SDS011;7116;52.152;5.392;2023-02-28T05:34:38;7.37;;;4.00;;
14080;SDS011;7116;52.152;5.392;2023-02-28T05:37:04;4.47;;;3.87;;
14080;SDS011;7116;52.152;5.392;2023-02-28T05:39:29;6.55;;;3.95;;
14080;SDS011;7116;52.152;5.392;2023-02-28T05:41:55;5.60;;;3.93;;
14080;SDS011;7116;52.152;5.392;2023-02-28T05:44:20;7.90;;;3.93;;
14080;SDS011;7116;52.152;5.392;2023-02-28T05:46:45;4.60;;;3.40;;
14080;SDS011;7116;52.152;5.392;2023-02-28T05:49:10;5.40;;;3.57;;
14080;SDS011;7116;52.152;5.392;2023-02-28T05:51:36;6.23;;;4.20;;
14080;SDS011;7116;52.152;5.392;2023-02-28T05:54:04;5.70;;;3.55;;
14080;SDS011;7116;52.152;5.392;2023-02-28T05:56:29;6.03;;;4.07;;
14080;SDS011;7116;52.152;5.392;2023-02-28T05:58:55;6.53;;;4.27;;
14080;SDS011;7116;52.152;5.392;2023-02-28T06:01:24;6.43;;;3.90;;
14080;SDS011;7116;52.152;5.392;2023-02-28T06:03:51;5.40;;;3.85;;
14080;SDS011;7116;52.152;5.392;2023-02-28T06:06:16;7.07;;;4.30;;
14080;SDS011;7116;52.152;5.392;2023-02-28T06:08:42;5.00;;;3.65;;
14080;SDS011;7116;52.152;5.392;2023-02-28T06:11:08;9.47;;;3.70;;
14080;SDS011;7116;52.152;5.392;2023-02-28T06:13:33;5.17;;;3.90;;
14080;SDS011;7116;52.152;5.392;2023-02-28T06:16:01;5.93;;;4.10;;
14080;SDS011;7116;52.152;5.392;2023-02-28T06:18:27;8.57;;;5.05;;
14080;SDS011;7116;52.152;5.392;2023-02-28T06:20:53;12.27;;;5.13;;
14080;SDS011;7116;52.152;5.392;2023-02-28T06:23:19;8.13;;;5.28;;
14080;SDS011;7116;52.152;5.392;2023-02-28T06:25:45;7.37;;;4.30;;
14080;SDS011;7116;52.152;5.392;2023-02-28T06:28:10;8.07;;;4.35;;
14080;SDS011;7116;52.152;5.392;2023-02-28T06:30:36;8.87;;;4.70;;
14080;SDS011;7116;52.152;5.392;2023-02-28T06:33:01;5.07;;;3.80;;
14080;SDS011;7116;52.152;5.392;2023-02-28T06:35:27;6.63;;;4.20;;
14080;SDS011;7116;52.152;5.392;2023-02-28T06:37:52;4.97;;;3.53;;
14080;SDS011;7116;52.152;5.392;2023-02-28T06:40:17;6.17;;;3.80;;
14080;SDS011;7116;52.152;5.392;2023-02-28T06:42:42;5.37;;;3.40;;
14080;SDS011;7116;52.152;5.392;2023-02-28T06:45:08;4.35;;;3.90;;
14080;SDS011;7116;52.152;5.392;2023-02-28T06:47:34;5.47;;;3.75;;
14080;SDS011;7116;52.152;5.392;2023-02-28T06:49:59;7.82;;;4.50;;
14080;SDS011;7116;52.152;5.392;2023-02-28T06:52:26;6.55;;;3.83;;
14080;SDS011;7116;52.152;5.392;2023-02-28T06:54:51;5.20;;;3.92;;
14080;SDS011;7116;52.152;5.392;2023-02-28T06:57:25;6.53;;;4.22;;
14080;SDS011;7116;52.152;5.392;2023-02-28T06:59:50;6.75;;;4.22;;
14080;SDS011;7116;52.152;5.392;2023-02-28T07:02:15;5.90;;;3.90;;
14080;SDS011;7116;52.152;5.392;2023-02-28T07:04:40;6.03;;;3.60;;
14080;SDS011;7116;52.152;5.392;2023-02-28T07:07:09;6.40;;;5.25;;
14080;SDS011;7116;52.152;5.392;2023-02-28T07:09:34;5.33;;;4.00;;
14080;SDS011;7116;52.152;5.392;2023-02-28T07:11:59;6.63;;;4.13;;
14080;SDS011;7116;52.152;5.392;2023-02-28T07:14:25;8.55;;;4.00;;
14080;SDS011;7116;52.152;5.392;2023-02-28T07:16:51;8.90;;;3.93;;
14080;SDS011;7116;52.152;5.392;2023-02-28T07:19:16;6.80;;;4.17;;
14080;SDS011;7116;52.152;5.392;2023-02-28T07:21:41;11.20;;;5.17;;
14080;SDS011;7116;52.152;5.392;2023-02-28T07:24:06;4.63;;;3.50;;
14080;SDS011;7116;52.152;5.392;2023-02-28T07:26:31;6.23;;;3.93;;
14080;SDS011;7116;52.152;5.392;2023-02-28T07:28:59;7.22;;;3.90;;
14080;SDS011;7116;52.152;5.392;2023-02-28T07:31:24;8.57;;;4.23;;
14080;SDS011;7116;52.152;5.392;2023-02-28T07:33:49;6.17;;;3.97;;
14080;SDS011;7116;52.152;5.392;2023-02-28T07:36:15;6.90;;;3.73;;
14080;SDS011;7116;52.152;5.392;2023-02-28T07:38:42;11.90;;;4.00;;
14080;SDS011;7116;52.152;5.392;2023-02-28T07:41:08;5.85;;;3.92;;
14080;SDS011;7116;52.152;5.392;2023-02-28T07:43:33;5.27;;;3.60;;
14080;SDS011;7116;52.152;5.392;2023-02-28T07:46:06;5.93;;;4.07;;
14080;SDS011;7116;52.152;5.392;2023-02-28T07:48:31;8.30;;;4.70;;
14080;SDS011;7116;52.152;5.392;2023-02-28T07:50:57;9.03;;;4.33;;
14080;SDS011;7116;52.152;5.392;2023-02-28T07:53:22;6.63;;;4.32;;
14080;SDS011;7116;52.152;5.392;2023-02-28T07:55:48;5.30;;;4.10;;
14080;SDS011;7116;52.152;5.392;2023-02-28T07:58:13;7.20;;;4.47;;
14080;SDS011;7116;52.152;5.392;2023-02-28T08:00:38;6.67;;;4.43;;
14080;SDS011;7116;52.152;5.392;2023-02-28T08:03:03;7.50;;;4.43;;
14080;SDS011;7116;52.152;5.392;2023-02-28T08:05:29;8.00;;;5.03;;
14080;SDS011;7116;52.152;5.392;2023-02-28T08:07:55;9.35;;;4.43;;
14080;SDS011;7116;52.152;5.392;2023-02-28T08:10:20;7.67;;;4.13;;
14080;SDS011;7116;52.152;5.392;2023-02-28T08:12:45;6.00;;;3.90;;
14080;SDS011;7116;52.152;5.392;2023-02-28T08:15:10;7.07;;;4.40;;
14080;SDS011;7116;52.152;5.392;2023-02-28T08:17:35;8.27;;;3.77;;
14080;SDS011;7116;52.152;5.392;2023-02-28T08:20:01;8.50;;;3.90;;
14080;SDS011;7116;52.152;5.392;2023-02-28T08:22:26;8.20;;;4.40;;
14080;SDS011;7116;52.152;5.392;2023-02-28T08:24:51;6.70;;;4.13;;
14080;SDS011;7116;52.152;5.392;2023-02-28T08:27:16;5.57;;;4.40;;
14080;SDS011;7116;52.152;5.392;2023-02-28T08:29:42;5.60;;;4.13;;
14080;SDS011;7116;52.152;5.392;2023-02-28T08:32:07;8.73;;;5.17;;
14080;SDS011;7116;52.152;5.392;2023-02-28T08:34:32;4.10;;;3.37;;
14080;SDS011;7116;52.152;5.392;2023-02-28T08:36:58;5.77;;;4.37;;
14080;SDS011;7116;52.152;5.392;2023-02-28T08:39:23;8.37;;;3.70;;
14080;SDS011;7116;52.152;5.392;2023-02-28T08:41:48;10.43;;;4.33;;
14080;SDS011;7116;52.152;5.392;2023-02-28T08:44:13;5.30;;;3.97;;
14080;SDS011;7116;52.152;5.392;2023-02-28T08:46:38;6.03;;;4.10;;
14080;SDS011;7116;52.152;5.392;2023-02-28T08:49:04;6.00;;;4.07;;
14080;SDS011;7116;52.152;5.392;2023-02-28T08:51:29;5.83;;;3.70;;
14080;SDS011;7116;52.152;5.392;2023-02-28T08:53:55;6.50;;;4.80;;
14080;SDS011;7116;52.152;5.392;2023-02-28T08:56:20;5.17;;;3.77;;
14080;SDS011;7116;52.152;5.392;2023-02-28T08:58:46;6.50;;;4.40;;
14080;SDS011;7116;52.152;5.392;2023-02-28T09:01:22;5.70;;;4.40;;
14080;SDS011;7116;52.152;5.392;2023-02-28T09:03:48;6.27;;;4.00;;
14080;SDS011;7116;52.152;5.392;2023-02-28T09:06:14;10.82;;;4.38;;
14080;SDS011;7116;52.152;5.392;2023-02-28T09:08:39;7.05;;;4.43;;
14080;SDS011;7116;52.152;5.392;2023-02-28T09:11:05;5.60;;;4.23;;
14080;SDS011;7116;52.152;5.392;2023-02-28T09:13:30;5.93;;;4.77;;
14080;SDS011;7116;52.152;5.392;2023-02-28T09:15:57;6.57;;;4.57;;
14080;SDS011;7116;52.152;5.392;2023-02-28T09:18:22;5.63;;;3.83;;
14080;SDS011;7116;52.152;5.392;2023-02-28T09:20:48;4.83;;;3.10;;
14080;SDS011;7116;52.152;5.392;2023-02-28T09:23:13;5.50;;;3.10;;
14080;SDS011;7116;52.152;5.392;2023-02-28T09:25:44;11.03;;;3.87;;
14080;SDS011;7116;52.152;5.392;2023-02-28T09:28:10;5.07;;;3.72;;
14080;SDS011;7116;52.152;5.392;2023-02-28T09:30:36;6.40;;;3.60;;
14080;SDS011;7116;52.152;5.392;2023-02-28T09:33:01;4.50;;;3.20;;
14080;SDS011;7116;52.152;5.392;2023-02-28T09:35:26;4.00;;;3.20;;
14080;SDS011;7116;52.152;5.392;2023-02-28T09:37:52;7.37;;;2.70;;
14080;SDS011;7116;52.152;5.392;2023-02-28T09:40:18;3.23;;;2.20;;
14080;SDS011;7116;52.152;5.392;2023-02-28T09:42:47;2.80;;;2.15;;
14080;SDS011;7116;52.152;5.392;2023-02-28T09:48:11;3.53;;;2.60;;
14080;SDS011;7116;52.152;5.392;2023-02-28T09:50:48;2.90;;;2.47;;
14080;SDS011;7116;52.152;5.392;2023-02-28T09:55:50;4.93;;;2.42;;
14080;SDS011;7116;52.152;5.392;2023-02-28T10:06:26;3.17;;;2.57;;
14080;SDS011;7116;52.152;5.392;2023-02-28T10:11:17;3.27;;;2.33;;
14080;SDS011;7116;52.152;5.392;2023-02-28T10:18:59;3.97;;;3.20;;
14080;SDS011;7116;52.152;5.392;2023-02-28T10:21:28;4.70;;;3.20;;
14080;SDS011;7116;52.152;5.392;2023-02-28T10:24:16;3.72;;;2.88;;
14080;SDS011;7116;52.152;5.392;2023-02-28T10:26:43;4.07;;;3.40;;
14080;SDS011;7116;52.152;5.392;2023-02-28T10:29:10;3.10;;;2.57;;
14080;SDS011;7116;52.152;5.392;2023-02-28T10:31:35;3.87;;;2.40;;
14080;SDS011;7116;52.152;5.392;2023-02-28T10:34:00;3.20;;;2.75;;
14080;SDS011;7116;52.152;5.392;2023-02-28T10:36:26;3.37;;;2.23;;
14080;SDS011;7116;52.152;5.392;2023-02-28T10:38:51;3.80;;;2.73;;
14080;SDS011;7116;52.152;5.392;2023-02-28T10:41:26;2.43;;;1.97;;
14080;SDS011;7116;52.152;5.392;2023-02-28T10:44:12;2.50;;;2.10;;
14080;SDS011;7116;52.152;5.392;2023-02-28T10:46:37;3.75;;;2.72;;
14080;SDS011;7116;52.152;5.392;2023-02-28T10:49:05;4.20;;;2.50;;
14080;SDS011;7116;52.152;5.392;2023-02-28T10:51:34;8.47;;;2.80;;
14080;SDS011;7116;52.152;5.392;2023-02-28T10:53:59;2.67;;;2.20;;
14080;SDS011;7116;52.152;5.392;2023-02-28T10:56:25;4.83;;;2.60;;
14080;SDS011;7116;52.152;5.392;2023-02-28T10:58:58;3.67;;;2.40;;
14080;SDS011;7116;52.152;5.392;2023-02-28T11:03:55;2.50;;;1.97;;
14080;SDS011;7116;52.152;5.392;2023-02-28T11:06:23;6.72;;;2.90;;
14080;SDS011;7116;52.152;5.392;2023-02-28T11:08:52;2.70;;;1.90;;
14080;SDS011;7116;52.152;5.392;2023-02-28T11:11:19;3.00;;;2.35;;
14080;SDS011;7116;52.152;5.392;2023-02-28T11:13:45;4.60;;;2.20;;
14080;SDS011;7116;52.152;5.392;2023-02-28T11:16:12;3.17;;;2.30;;
14080;SDS011;7116;52.152;5.392;2023-02-28T11:18:47;3.72;;;2.10;;
14080;SDS011;7116;52.152;5.392;2023-02-28T11:21:24;5.68;;;2.45;;
14080;SDS011;7116;52.152;5.392;2023-02-28T11:23:50;3.05;;;2.40;;
14080;SDS011;7116;52.152;5.392;2023-02-28T11:26:16;3.25;;;2.25;;
14080;SDS011;7116;52.152;5.392;2023-02-28T11:29:05;5.53;;;2.60;;
14080;SDS011;7116;52.152;5.392;2023-02-28T11:31:33;2.88;;;2.25;;
14080;SDS011;7116;52.152;5.392;2023-02-28T11:33:58;2.60;;;1.90;;
14080;SDS011;7116;52.152;5.392;2023-02-28T11:36:28;2.57;;;2.37;;
14080;SDS011;7116;52.152;5.392;2023-02-28T11:38:55;3.70;;;2.67;;
14080;SDS011;7116;52.152;5.392;2023-02-28T11:46:31;3.07;;;2.20;;
14080;SDS011;7116;52.152;5.392;2023-02-28T11:54:02;2.60;;;2.20;;
14080;SDS011;7116;52.152;5.392;2023-02-28T11:56:49;2.72;;;2.22;;
14080;SDS011;7116;52.152;5.392;2023-02-28T12:07:16;2.90;;;2.58;;
14080;SDS011;7116;52.152;5.392;2023-02-28T12:09:56;2.83;;;2.30;;
14080;SDS011;7116;52.152;5.392;2023-02-28T12:14:50;1.87;;;1.63;;
14080;SDS011;7116;52.152;5.392;2023-02-28T12:22:31;4.22;;;3.03;;
14080;SDS011;7116;52.152;5.392;2023-02-28T12:27:22;2.90;;;2.00;;
14080;SDS011;7116;52.152;5.392;2023-02-28T12:29:51;2.93;;;2.10;;
14080;SDS011;7116;52.152;5.392;2023-02-28T12:32:19;3.20;;;2.50;;
14080;SDS011;7116;52.152;5.392;2023-02-28T12:34:51;3.20;;;2.50;;
14080;SDS011;7116;52.152;5.392;2023-02-28T12:37:18;2.60;;;2.20;;
14080;SDS011;7116;52.152;5.392;2023-02-28T12:39:45;4.60;;;2.20;;
14080;SDS011;7116;52.152;5.392;2023-02-28T12:42:12;3.87;;;3.10;;
14080;SDS011;7116;52.152;5.392;2023-02-28T12:45:21;3.40;;;2.30;;
14080;SDS011;7116;52.152;5.392;2023-02-28T12:47:27;3.92;;;2.15;;
14080;SDS011;7116;52.152;5.392;2023-02-28T12:50:09;3.27;;;2.03;;
14080;SDS011;7116;52.152;5.392;2023-02-28T12:55:27;3.45;;;2.72;;
14080;SDS011;7116;52.152;5.392;2023-02-28T13:01:04;2.95;;;2.20;;
14080;SDS011;7116;52.152;5.392;2023-02-28T13:11:48;3.13;;;2.65;;
14080;SDS011;7116;52.152;5.392;2023-02-28T13:14:24;3.77;;;3.23;;
14080;SDS011;7116;52.152;5.392;2023-02-28T13:17:03;3.28;;;2.33;;
14080;SDS011;7116;52.152;5.392;2023-02-28T13:19:37;3.25;;;2.20;;
14080;SDS011;7116;52.152;5.392;2023-02-28T13:22:04;3.53;;;2.70;;
14080;SDS011;7116;52.152;5.392;2023-02-28T13:24:41;3.70;;;2.40;;
14080;SDS011;7116;52.152;5.392;2023-02-28T13:29:51;3.67;;;2.33;;
14080;SDS011;7116;52.152;5.392;2023-02-28T13:39:45;3.45;;;2.55;;
14080;SDS011;7116;52.152;5.392;2023-02-28T13:49:55;4.30;;;2.97;;
14080;SDS011;7116;52.152;5.392;2023-02-28T13:52:42;2.97;;;2.60;;
14080;SDS011;7116;52.152;5.392;2023-02-28T13:55:19;3.10;;;2.80;;
14080;SDS011;7116;52.152;5.392;2023-02-28T14:05:42;4.07;;;2.57;;
14080;SDS011;7116;52.152;5.392;2023-02-28T14:08:18;4.40;;;3.07;;
14080;SDS011;7116;52.152;5.392;2023-02-28T14:10:46;3.78;;;2.75;;
14080;SDS011;7116;52.152;5.392;2023-02-28T14:15:56;3.97;;;2.85;;
14080;SDS011;7116;52.152;5.392;2023-02-28T14:18:27;3.50;;;2.50;;
14080;SDS011;7116;52.152;5.392;2023-02-28T14:20:55;3.55;;;2.90;;
14080;SDS011;7116;52.152;5.392;2023-02-28T14:25:55;5.93;;;2.72;;
14080;SDS011;7116;52.152;5.392;2023-02-28T14:28:42;3.10;;;2.75;;
14080;SDS011;7116;52.152;5.392;2023-02-28T14:31:22;3.80;;;2.83;;
14080;SDS011;7116;52.152;5.392;2023-02-28T14:36:27;4.00;;;3.05;;
14080;SDS011;7116;52.152;5.392;2023-02-28T14:38:57;3.92;;;2.60;;
14080;SDS011;7116;52.152;5.392;2023-02-28T14:43:55;3.00;;;2.70;;
14080;SDS011;7116;52.152;5.392;2023-02-28T14:46:22;4.00;;;2.80;;
14080;SDS011;7116;52.152;5.392;2023-02-28T14:48:48;4.68;;;3.20;;
14080;SDS011;7116;52.152;5.392;2023-02-28T14:51:18;2.97;;;2.50;;
14080;SDS011;7116;52.152;5.392;2023-02-28T14:53:43;3.50;;;2.95;;
14080;SDS011;7116;52.152;5.392;2023-02-28T14:56:17;4.30;;;3.10;;
14080;SDS011;7116;52.152;5.392;2023-02-28T14:58:50;3.70;;;2.90;;
14080;SDS011;7116;52.152;5.392;2023-02-28T15:01:19;6.22;;;3.80;;
14080;SDS011;7116;52.152;5.392;2023-02-28T15:03:44;3.95;;;2.40;;
14080;SDS011;7116;52.152;5.392;2023-02-28T15:08:37;3.95;;;3.35;;
14080;SDS011;7116;52.152;5.392;2023-02-28T15:11:13;3.07;;;2.70;;
14080;SDS011;7116;52.152;5.392;2023-02-28T15:13:40;4.47;;;3.33;;
14080;SDS011;7116;52.152;5.392;2023-02-28T15:16:08;4.20;;;3.27;;
14080;SDS011;7116;52.152;5.392;2023-02-28T15:18:43;8.73;;;3.13;;
14080;SDS011;7116;52.152;5.392;2023-02-28T15:21:20;4.38;;;3.03;;
14080;SDS011;7116;52.152;5.392;2023-02-28T15:23:48;3.40;;;2.53;;
14080;SDS011;7116;52.152;5.392;2023-02-28T15:26:16;3.67;;;2.38;;
14080;SDS011;7116;52.152;5.392;2023-02-28T15:28:44;4.17;;;2.83;;
14080;SDS011;7116;52.152;5.392;2023-02-28T15:31:31;3.30;;;2.65;;
14080;SDS011;7116;52.152;5.392;2023-02-28T15:33:58;3.95;;;2.85;;
14080;SDS011;7116;52.152;5.392;2023-02-28T15:36:29;3.67;;;3.00;;
14080;SDS011;7116;52.152;5.392;2023-02-28T15:38:54;3.85;;;2.75;;
14080;SDS011;7116;52.152;5.392;2023-02-28T15:44:33;3.88;;;2.83;;
14080;SDS011;7116;52.152;5.392;2023-02-28T15:47:04;3.85;;;3.30;;
14080;SDS011;7116;52.152;5.392;2023-02-28T15:49:33;4.93;;;3.60;;
14080;SDS011;7116;52.152;5.392;2023-02-28T15:52:02;4.40;;;3.50;;
14080;SDS011;7116;52.152;5.392;2023-02-28T15:54:32;5.90;;;3.40;;
14080;SDS011;7116;52.152;5.392;2023-02-28T15:56:58;4.28;;;3.45;;
14080;SDS011;7116;52.152;5.392;2023-02-28T15:59:28;5.57;;;3.40;;
14080;SDS011;7116;52.152;5.392;2023-02-28T16:04:34;4.60;;;3.50;;
14080;SDS011;7116;52.152;5.392;2023-02-28T16:07:04;5.90;;;3.50;;
14080;SDS011;7116;52.152;5.392;2023-02-28T16:09:30;4.68;;;2.78;;
14080;SDS011;7116;52.152;5.392;2023-02-28T16:11:56;5.05;;;3.10;;
14080;SDS011;7116;52.152;5.392;2023-02-28T16:14:25;6.17;;;3.50;;
14080;SDS011;7116;52.152;5.392;2023-02-28T16:16:53;5.35;;;3.53;;
14080;SDS011;7116;52.152;5.392;2023-02-28T16:19:19;5.20;;;2.95;;
14080;SDS011;7116;52.152;5.392;2023-02-28T16:21:45;6.30;;;2.90;;
14080;SDS011;7116;52.152;5.392;2023-02-28T16:24:10;6.15;;;2.90;;
14080;SDS011;7116;52.152;5.392;2023-02-28T16:26:35;3.53;;;3.03;;
14080;SDS011;7116;52.152;5.392;2023-02-28T16:29:02;4.40;;;2.90;;
14080;SDS011;7116;52.152;5.392;2023-02-28T16:31:28;5.23;;;3.33;;
14080;SDS011;7116;52.152;5.392;2023-02-28T16:33:53;7.93;;;3.87;;
14080;SDS011;7116;52.152;5.392;2023-02-28T16:36:19;6.38;;;3.20;;
14080;SDS011;7116;52.152;5.392;2023-02-28T16:38:45;5.53;;;3.30;;
14080;SDS011;7116;52.152;5.392;2023-02-28T16:41:20;4.83;;;3.47;;
14080;SDS011;7116;52.152;5.392;2023-02-28T16:43:46;5.28;;;4.13;;
14080;SDS011;7116;52.152;5.392;2023-02-28T16:46:12;5.32;;;3.33;;
14080;SDS011;7116;52.152;5.392;2023-02-28T16:48:37;5.17;;;3.23;;
14080;SDS011;7116;52.152;5.392;2023-02-28T16:51:03;3.57;;;3.00;;
14080;SDS011;7116;52.152;5.392;2023-02-28T16:53:29;6.00;;;3.65;;
14080;SDS011;7116;52.152;5.392;2023-02-28T16:55:54;4.77;;;3.50;;
14080;SDS011;7116;52.152;5.392;2023-02-28T16:58:19;4.67;;;3.30;;
14080;SDS011;7116;52.152;5.392;2023-02-28T17:00:46;6.00;;;3.35;;
14080;SDS011;7116;52.152;5.392;2023-02-28T17:03:17;4.90;;;3.47;;
14080;SDS011;7116;52.152;5.392;2023-02-28T17:05:43;4.63;;;3.47;;
14080;SDS011;7116;52.152;5.392;2023-02-28T17:08:09;5.65;;;3.67;;
14080;SDS011;7116;52.152;5.392;2023-02-28T17:10:34;4.25;;;3.45;;
14080;SDS011;7116;52.152;5.392;2023-02-28T17:13:00;6.90;;;3.40;;
14080;SDS011;7116;52.152;5.392;2023-02-28T17:15:25;6.53;;;3.23;;
14080;SDS011;7116;52.152;5.392;2023-02-28T17:17:50;4.83;;;3.47;;
14080;SDS011;7116;52.152;5.392;2023-02-28T17:20:17;6.20;;;3.87;;